Time;durP1;ratioP1;P1;durP2;ratioP2;P2;SDS_P1;SDS_P2;PMS_P1;PMS_P2;Temp;Humidity;BMP_temperature;BMP_pressure;BME280_temperature;BME280_humidity;BME280_pressure;Samples;Min_cycle;Max_cycle;Signal;HPM_P1;HPM_P2
2021/09/21 00:00:44;;;;;;;;;;;16.40;91.60;;;;;;2081750;28;724;-56
2021/09/21 00:02:04;;;;;;;;;;;16.40;91.50;;;;;;2081150;28;727;-53
2021/09/21 00:03:23;;;;;;;;;;;16.40;91.70;;;;;;2077029;28;746;-54
2021/09/21 00:04:42;;;;;;;;;;;16.40;91.50;;;;;;2081530;28;766;-54
2021/09/21 00:06:03;;;;;;;;;;;16.40;91.60;;;;;;2089316;28;729;-55
2021/09/21 00:07:22;;;;;;;;;;;16.40;91.70;;;;;;2088548;28;975;-55
2021/09/21 00:08:41;;;;;;;;;;;16.40;91.70;;;;;;2097238;28;1230;-53
2021/09/21 00:10:00;;;;;;;;;;;16.40;91.70;;;;;;2084577;28;949;-56
2021/09/21 00:11:19;;;;;;;;;;;16.40;91.70;;;;;;2094477;28;778;-54
2021/09/21 00:12:39;;;;;;;;;;;16.40;91.80;;;;;;2098013;28;743;-56
2021/09/21 00:13:59;;;;;;;;;;;16.40;92.20;;;;;;2097983;28;1384;-54
2021/09/21 00:15:18;;;;;;;;;;;16.40;91.80;;;;;;2097653;28;727;-53
2021/09/21 00:16:38;;;;;;;;;;;16.40;91.90;;;;;;2097215;28;707;-54
2021/09/21 00:17:57;;;;;;;;;;;16.40;91.90;;;;;;2105606;28;714;-55
2021/09/21 00:19:16;;;;;;;;;;;16.40;92.00;;;;;;2101160;28;733;-55
2021/09/21 00:20:36;;;;;;;;;;;16.40;92.10;;;;;;2097490;28;780;-55
2021/09/21 00:21:55;;;;;;;;;;;16.40;92.00;;;;;;2097646;28;708;-54
2021/09/21 00:23:14;;;;;;;;;;;16.40;91.90;;;;;;2098036;28;756;-54
2021/09/21 00:24:33;;;;;;;;;;;16.40;91.90;;;;;;2097969;28;741;-56
2021/09/21 00:25:52;;;;;;;;;;;16.40;92.00;;;;;;2097866;28;758;-55
2021/09/21 00:27:11;;;;;;;;;;;16.40;92.10;;;;;;2097661;28;1910;-54
2021/09/21 00:28:31;;;;;;;;;;;16.40;92.00;;;;;;2105655;28;766;-54
2021/09/21 00:29:50;;;;;;;;;;;16.40;92.40;;;;;;2097230;28;715;-55
2021/09/21 00:31:10;;;;;;;;;;;16.40;92.20;;;;;;2097762;28;716;-53
2021/09/21 00:32:29;;;;;;;;;;;16.40;92.20;;;;;;2097224;28;725;-54
2021/09/21 00:33:52;;;;;;;;;;;16.40;92.20;;;;;;2097477;28;1447;-53
2021/09/21 00:35:11;;;;;;;;;;;16.40;92.20;;;;;;2097151;28;733;-54
2021/09/21 00:36:30;;;;;;;;;;;16.40;92.20;;;;;;2096957;28;709;-56
2021/09/21 00:37:49;;;;;;;;;;;16.40;92.20;;;;;;2081641;28;1179;-53
2021/09/21 00:39:09;;;;;;;;;;;16.40;92.30;;;;;;2094342;28;1246;-55
2021/09/21 00:40:29;;;;;;;;;;;16.40;92.30;;;;;;2094909;28;1220;-56
2021/09/21 00:41:48;;;;;;;;;;;16.40;92.40;;;;;;2097421;28;721;-56
2021/09/21 00:43:07;;;;;;;;;;;16.40;92.70;;;;;;2097651;28;747;-55
2021/09/21 00:44:26;;;;;;;;;;;16.40;92.40;;;;;;2097249;28;826;-55
2021/09/21 00:45:45;;;;;;;;;;;16.40;92.40;;;;;;2096778;28;710;-53
2021/09/21 00:47:05;;;;;;;;;;;16.40;92.50;;;;;;2097221;28;1905;-55
2021/09/21 00:48:24;;;;;;;;;;;16.40;92.50;;;;;;2097825;28;961;-54
2021/09/21 00:49:43;;;;;;;;;;;16.40;92.50;;;;;;2098025;28;753;-54
2021/09/21 00:51:02;;;;;;;;;;;16.40;92.60;;;;;;2097933;28;791;-55
2021/09/21 00:52:22;;;;;;;;;;;16.40;92.50;;;;;;2097138;28;734;-53
2021/09/21 00:53:41;;;;;;;;;;;16.40;92.50;;;;;;2096995;28;1337;-53
2021/09/21 00:55:00;;;;;;;;;;;16.40;92.60;;;;;;2097583;28;716;-56
2021/09/21 00:56:20;;;;;;;;;;;16.40;92.70;;;;;;2097339;28;757;-56
2021/09/21 00:57:39;;;;;;;;;;;16.40;92.60;;;;;;2097615;28;798;-55
2021/09/21 00:58:58;;;;;;;;;;;16.40;92.60;;;;;;2087916;28;1589;-54
2021/09/21 01:00:18;;;;;;;;;;;16.40;93.00;;;;;;2090452;28;983;-55
2021/09/21 01:01:37;;;;;;;;;;;16.40;92.90;;;;;;2097482;28;779;-54
2021/09/21 01:02:56;;;;;;;;;;;16.40;92.70;;;;;;2096734;28;768;-56
2021/09/21 01:04:15;;;;;;;;;;;16.40;92.80;;;;;;2097830;28;1405;-54
2021/09/21 01:05:36;;;;;;;;;;;16.40;92.80;;;;;;2097764;28;798;-55
2021/09/21 01:06:55;;;;;;;;;;;16.40;92.80;;;;;;2095993;28;1975;-54
2021/09/21 01:08:14;;;;;;;;;;;16.40;92.90;;;;;;2088690;28;1016;-54
2021/09/21 01:09:34;;;;;;;;;;;16.30;93.00;;;;;;2082864;28;1208;-56
2021/09/21 01:10:53;;;;;;;;;;;16.40;92.90;;;;;;2080795;28;785;-55
2021/09/21 01:12:12;;;;;;;;;;;16.40;92.90;;;;;;2081024;28;740;-54
2021/09/21 01:13:31;;;;;;;;;;;16.30;92.80;;;;;;2080450;28;1356;-56
2021/09/21 01:14:51;;;;;;;;;;;16.30;92.90;;;;;;2077474;28;703;-55
2021/09/21 01:16:10;;;;;;;;;;;16.30;93.10;;;;;;2080218;28;721;-54
2021/09/21 01:17:29;;;;;;;;;;;16.30;93.30;;;;;;2080964;28;743;-55
2021/09/21 01:18:48;;;;;;;;;;;16.40;93.10;;;;;;2081221;28;729;-54
2021/09/21 01:20:08;;;;;;;;;;;16.40;93.40;;;;;;2081254;28;790;-53
2021/09/21 01:21:27;;;;;;;;;;;16.30;93.10;;;;;;2089040;28;744;-53
2021/09/21 01:22:47;;;;;;;;;;;16.30;93.00;;;;;;2084117;28;709;-55
2021/09/21 01:24:06;;;;;;;;;;;16.30;93.00;;;;;;2081058;28;1361;-53
2021/09/21 01:25:25;;;;;;;;;;;16.30;93.10;;;;;;2080550;28;755;-56
2021/09/21 01:26:45;;;;;;;;;;;16.30;93.00;;;;;;2080258;28;2304;-55
2021/09/21 01:28:04;;;;;;;;;;;16.40;93.20;;;;;;2080696;28;796;-54
2021/09/21 01:29:24;;;;;;;;;;;16.30;93.00;;;;;;2081132;28;729;-56
2021/09/21 01:30:44;;;;;;;;;;;16.30;93.20;;;;;;2080349;28;780;-54
2021/09/21 01:32:03;;;;;;;;;;;16.30;93.50;;;;;;2080827;28;710;-56
2021/09/21 01:33:22;;;;;;;;;;;16.30;93.30;;;;;;2081193;28;712;-56
2021/09/21 01:34:41;;;;;;;;;;;16.40;93.30;;;;;;2080634;28;703;-56
2021/09/21 01:36:00;;;;;;;;;;;16.40;93.40;;;;;;2081021;28;705;-54
2021/09/21 01:37:22;;;;;;;;;;;16.40;93.30;;;;;;2083547;28;908;-53
2021/09/21 01:38:41;;;;;;;;;;;16.40;93.30;;;;;;2081299;28;1050;-53
2021/09/21 01:40:00;;;;;;;;;;;16.40;93.40;;;;;;2069323;28;1013;-53
2021/09/21 01:41:19;;;;;;;;;;;16.30;93.30;;;;;;2077659;28;729;-53
2021/09/21 01:42:42;;;;;;;;;;;16.40;93.30;;;;;;2080472;28;742;-57
2021/09/21 01:44:01;;;;;;;;;;;16.40;93.40;;;;;;2092320;28;1404;-56
2021/09/21 01:45:20;;;;;;;;;;;16.40;93.30;;;;;;2096956;28;818;-60
2021/09/21 01:46:39;;;;;;;;;;;16.30;93.80;;;;;;2096593;28;1959;-56
2021/09/21 01:47:59;;;;;;;;;;;16.40;93.40;;;;;;2097541;28;783;-60
2021/09/21 01:49:19;;;;;;;;;;;16.40;93.40;;;;;;2096888;28;792;-55
2021/09/21 01:52:35;;;;;;;;;;;16.40;93.50;;;;;;2090153;28;1252;-58
2021/09/21 01:58:48;;;;;;;;;;;16.30;93.60;;;;;;2099166;28;767;-59
2021/09/21 02:00:07;;;;;;;;;;;16.30;93.90;;;;;;2098813;28;748;-54
2021/09/21 02:01:31;;;;;;;;;;;16.30;93.50;;;;;;2098934;28;792;-57
2021/09/21 02:02:50;;;;;;;;;;;16.40;93.60;;;;;;2098181;28;717;-57
2021/09/21 02:04:10;;;;;;;;;;;16.40;93.70;;;;;;2098699;28;1296;-57
2021/09/21 02:05:29;;;;;;;;;;;16.40;93.70;;;;;;2098130;28;772;-57
2021/09/21 02:06:49;;;;;;;;;;;16.40;93.70;;;;;;2098007;28;1901;-59
2021/09/21 02:08:08;;;;;;;;;;;16.30;93.70;;;;;;2089958;28;1183;-57
2021/09/21 02:09:28;;;;;;;;;;;16.40;93.80;;;;;;2084877;28;1118;-59
2021/09/21 02:10:47;;;;;;;;;;;16.40;93.70;;;;;;2098450;28;1201;-59
2021/09/21 02:12:06;;;;;;;;;;;16.30;93.70;;;;;;2095186;28;749;-62
2021/09/21 02:13:26;;;;;;;;;;;16.40;93.80;;;;;;2098860;28;736;-56
2021/09/21 02:14:45;;;;;;;;;;;16.40;93.90;;;;;;2081917;28;713;-59
2021/09/21 02:16:04;;;;;;;;;;;16.40;94.00;;;;;;2091530;28;787;-57
2021/09/21 02:17:23;;;;;;;;;;;16.30;93.90;;;;;;2094951;28;751;-58
2021/09/21 02:18:42;;;;;;;;;;;16.40;94.00;;;;;;2098658;28;705;-54
2021/09/21 02:20:02;;;;;;;;;;;16.40;94.10;;;;;;2106617;28;732;-60
2021/09/21 02:21:21;;;;;;;;;;;16.30;94.10;;;;;;2101956;28;969;-59
2021/09/21 02:22:41;;;;;;;;;;;16.40;94.10;;;;;;2098740;28;705;-58
2021/09/21 02:24:00;;;;;;;;;;;16.40;94.10;;;;;;2098728;28;1329;-60
2021/09/21 02:25:19;;;;;;;;;;;16.30;94.10;;;;;;2098403;28;780;-57
2021/09/21 02:26:39;;;;;;;;;;;16.30;94.10;;;;;;2097640;28;1902;-58
2021/09/21 02:27:57;;;;;;;;;;;16.30;94.20;;;;;;2098648;28;705;-56
2021/09/21 02:29:17;;;;;;;;;;;16.30;94.20;;;;;;2106789;28;732;-59
2021/09/21 02:30:36;;;;;;;;;;;16.30;94.10;;;;;;2098280;28;737;-55
2021/09/21 02:31:55;;;;;;;;;;;16.30;94.10;;;;;;2098536;28;728;-60
2021/09/21 02:33:14;;;;;;;;;;;16.30;94.10;;;;;;2099050;28;725;-59
2021/09/21 02:34:34;;;;;;;;;;;16.30;94.60;;;;;;2098789;28;827;-57
2021/09/21 02:35:53;;;;;;;;;;;16.30;94.70;;;;;;2106334;28;723;-57
2021/09/21 02:37:15;;;;;;;;;;;16.30;94.30;;;;;;2098046;28;981;-58
2021/09/21 02:38:34;;;;;;;;;;;16.30;94.40;;;;;;2089243;28;1059;-59
2021/09/21 02:39:54;;;;;;;;;;;16.30;94.30;;;;;;2084099;28;870;-53
2021/09/21 02:41:13;;;;;;;;;;;16.30;94.40;;;;;;2098935;28;798;-59
2021/09/21 02:42:32;;;;;;;;;;;16.30;94.20;;;;;;2098730;28;713;-56
2021/09/21 02:43:53;;;;;;;;;;;16.30;94.40;;;;;;2098733;28;1416;-56
2021/09/21 02:45:12;;;;;;;;;;;16.30;94.40;;;;;;2098734;28;798;-56
2021/09/21 02:46:31;;;;;;;;;;;16.30;94.80;;;;;;2098156;28;1997;-58
2021/09/21 02:47:50;;;;;;;;;;;16.30;94.80;;;;;;2098464;28;806;-57
2021/09/21 02:49:10;;;;;;;;;;;16.30;94.60;;;;;;2098530;28;759;-57
2021/09/21 02:50:29;;;;;;;;;;;16.30;94.50;;;;;;2098858;28;716;-55
2021/09/21 02:51:48;;;;;;;;;;;16.30;94.60;;;;;;2098306;28;744;-56
2021/09/21 02:53:07;;;;;;;;;;;16.30;94.60;;;;;;2096441;28;1479;-56
2021/09/21 02:54:26;;;;;;;;;;;16.30;94.50;;;;;;2081986;28;1450;-56
2021/09/21 02:55:46;;;;;;;;;;;16.30;94.60;;;;;;2081428;28;785;-58
2021/09/21 02:57:05;;;;;;;;;;;16.30;94.70;;;;;;2081535;28;809;-57
2021/09/21 02:58:24;;;;;;;;;;;16.30;94.70;;;;;;2082002;28;950;-59
2021/09/21 02:59:43;;;;;;;;;;;16.30;94.70;;;;;;2081296;28;771;-59
2021/09/21 03:01:03;;;;;;;;;;;16.30;94.70;;;;;;2086578;28;730;-59
2021/09/21 03:02:23;;;;;;;;;;;16.30;94.80;;;;;;2081417;28;1008;-59
2021/09/21 03:03:47;;;;;;;;;;;16.30;94.90;;;;;;2079554;28;1496;-58
2021/09/21 03:05:10;;;;;;;;;;;16.20;94.90;;;;;;2081411;28;975;-58
2021/09/21 03:06:33;;;;;;;;;;;16.20;94.90;;;;;;2081410;28;1137;-60
2021/09/21 03:08:06;;;;;;;;;;;16.30;94.90;;;;;;2084895;28;1456;-59
2021/09/21 03:09:48;;;;;;;;;;;16.30;94.80;;;;;;2087068;28;1366;-58
2021/09/21 03:11:14;;;;;;;;;;;16.30;95.00;;;;;;2083617;28;1455;-60
2021/09/21 03:18:44;;;;;;;;;;;16.30;95.00;;;;;;2066677;28;1494;-60
2021/09/21 03:20:04;;;;;;;;;;;16.20;95.10;;;;;;2087412;28;1392;-57
2021/09/21 03:21:23;;;;;;;;;;;16.30;95.10;;;;;;2086495;28;1306;-59
2021/09/21 03:22:42;;;;;;;;;;;16.20;95.10;;;;;;2085653;28;1306;-59
2021/09/21 03:24:01;;;;;;;;;;;16.30;95.30;;;;;;2087224;28;1482;-59
2021/09/21 03:25:21;;;;;;;;;;;16.30;95.50;;;;;;2086452;28;1182;-58
2021/09/21 03:26:40;;;;;;;;;;;16.20;95.50;;;;;;2085173;28;1945;-59
2021/09/21 03:27:59;;;;;;;;;;;16.30;95.10;;;;;;2085543;28;1215;-58
2021/09/21 03:29:19;;;;;;;;;;;16.20;95.10;;;;;;2085662;28;1151;-58
2021/09/21 03:30:38;;;;;;;;;;;16.20;95.10;;;;;;2089275;28;1132;-60
2021/09/21 03:31:57;;;;;;;;;;;16.20;95.20;;;;;;2085602;28;1146;-56
2021/09/21 03:33:17;;;;;;;;;;;16.20;95.20;;;;;;2085857;28;1082;-55
2021/09/21 03:34:39;;;;;;;;;;;16.20;95.30;;;;;;2084508;28;1244;-57
2021/09/21 03:35:58;;;;;;;;;;;16.30;95.40;;;;;;2086135;28;1303;-58
2021/09/21 03:37:17;;;;;;;;;;;16.20;95.40;;;;;;2085957;28;1258;-60
2021/09/21 03:38:36;;;;;;;;;;;16.20;95.20;;;;;;2088638;28;1051;-59
2021/09/21 03:39:55;;;;;;;;;;;16.30;95.20;;;;;;2089142;28;1180;-59
2021/09/21 03:41:15;;;;;;;;;;;16.30;95.20;;;;;;2089820;28;1198;-60
2021/09/21 03:42:34;;;;;;;;;;;16.30;95.20;;;;;;2088257;28;1071;-58
2021/09/21 03:43:53;;;;;;;;;;;16.20;95.40;;;;;;2090024;28;1365;-59
2021/09/21 03:45:12;;;;;;;;;;;16.20;95.30;;;;;;2084501;28;1169;-59
2021/09/21 03:46:32;;;;;;;;;;;16.20;95.30;;;;;;2073653;28;1969;-58
2021/09/21 03:47:51;;;;;;;;;;;16.20;95.30;;;;;;2085622;28;1105;-57
2021/09/21 03:49:10;;;;;;;;;;;16.20;95.50;;;;;;2088371;28;1303;-58
2021/09/21 03:50:29;;;;;;;;;;;16.20;95.50;;;;;;2095051;28;1364;-59
2021/09/21 03:51:49;;;;;;;;;;;16.20;95.30;;;;;;2083995;28;883;-57
2021/09/21 03:53:08;;;;;;;;;;;16.20;95.40;;;;;;2084180;28;894;-60
2021/09/21 03:54:27;;;;;;;;;;;16.20;95.50;;;;;;2083677;28;1316;-58
2021/09/21 03:55:46;;;;;;;;;;;16.20;95.50;;;;;;2084420;28;1029;-59
2021/09/21 03:57:06;;;;;;;;;;;16.20;95.50;;;;;;2083363;28;936;-58
2021/09/21 03:58:25;;;;;;;;;;;16.20;95.40;;;;;;2083887;28;917;-61
2021/09/21 03:59:44;;;;;;;;;;;16.20;95.60;;;;;;2081871;28;1161;-59
2021/09/21 04:01:03;;;;;;;;;;;16.20;95.80;;;;;;2086446;28;1307;-61
2021/09/21 04:02:22;;;;;;;;;;;16.20;95.70;;;;;;2089205;28;1191;-57
2021/09/21 04:03:42;;;;;;;;;;;16.20;95.70;;;;;;2085936;28;1489;-57
2021/09/21 04:05:01;;;;;;;;;;;16.20;95.60;;;;;;2083991;28;1318;-59
2021/09/21 04:06:20;;;;;;;;;;;16.20;95.50;;;;;;2082657;28;1508;-57
2021/09/21 04:07:39;;;;;;;;;;;16.20;95.70;;;;;;2087976;28;1289;-59
2021/09/21 04:08:58;;;;;;;;;;;16.20;95.60;;;;;;2089214;28;1219;-57
2021/09/21 04:10:18;;;;;;;;;;;16.20;95.50;;;;;;2086079;28;1229;-57
2021/09/21 04:11:37;;;;;;;;;;;16.20;95.70;;;;;;2087579;28;1185;-59
2021/09/21 04:12:56;;;;;;;;;;;16.20;95.80;;;;;;2082015;28;1235;-55
2021/09/21 04:14:15;;;;;;;;;;;16.20;95.80;;;;;;2085468;28;1425;-58
2021/09/21 04:15:34;;;;;;;;;;;16.20;95.80;;;;;;2088193;28;1164;-60
2021/09/21 04:16:53;;;;;;;;;;;16.20;95.80;;;;;;2086210;28;1336;-58
2021/09/21 04:18:13;;;;;;;;;;;16.20;95.80;;;;;;2085242;28;1118;-57
2021/09/21 04:19:32;;;;;;;;;;;16.20;96.20;;;;;;2088438;28;1385;-59
2021/09/21 04:20:51;;;;;;;;;;;16.20;95.80;;;;;;2084158;28;878;-59
2021/09/21 04:22:10;;;;;;;;;;;16.20;95.80;;;;;;2086352;28;1309;-57
2021/09/21 04:23:30;;;;;;;;;;;16.20;95.80;;;;;;2076324;28;1400;-58
2021/09/21 04:24:49;;;;;;;;;;;16.20;95.90;;;;;;2081151;28;1162;-57
2021/09/21 04:26:08;;;;;;;;;;;16.20;95.90;;;;;;2085196;28;1114;-60
2021/09/21 04:27:28;;;;;;;;;;;16.20;95.90;;;;;;2075207;28;1980;-59
2021/09/21 04:28:47;;;;;;;;;;;16.10;96.00;;;;;;2081311;28;985;-61
2021/09/21 04:30:06;;;;;;;;;;;16.10;95.90;;;;;;2075776;28;876;-56
2021/09/21 04:31:27;;;;;;;;;;;16.20;96.00;;;;;;2082586;28;1475;-60
2021/09/21 04:32:46;;;;;;;;;;;16.20;96.10;;;;;;2084584;28;1213;-56
2021/09/21 04:34:05;;;;;;;;;;;16.20;96.00;;;;;;2081381;28;1377;-59
2021/09/21 04:35:24;;;;;;;;;;;16.20;96.40;;;;;;2083498;28;1207;-56
2021/09/21 04:36:44;;;;;;;;;;;16.10;96.30;;;;;;2083607;28;998;-59
2021/09/21 04:38:03;;;;;;;;;;;16.10;96.20;;;;;;2085244;28;840;-58
2021/09/21 04:39:22;;;;;;;;;;;16.10;96.10;;;;;;2087366;28;1188;-59
2021/09/21 04:40:41;;;;;;;;;;;16.10;96.00;;;;;;2087762;28;1361;-57
2021/09/21 04:42:01;;;;;;;;;;;16.10;96.00;;;;;;2089088;28;1205;-62
2021/09/21 04:43:20;;;;;;;;;;;16.20;96.10;;;;;;2076612;28;1316;-57
2021/09/21 04:44:40;;;;;;;;;;;16.20;96.20;;;;;;2083256;28;1358;-56
2021/09/21 04:45:59;;;;;;;;;;;16.20;96.20;;;;;;2087194;28;1242;-57
2021/09/21 04:47:18;;;;;;;;;;;16.10;96.10;;;;;;2085144;28;1904;-58
2021/09/21 04:48:37;;;;;;;;;;;16.20;96.10;;;;;;2083646;28;1300;-55
2021/09/21 04:49:56;;;;;;;;;;;16.10;96.10;;;;;;2084001;28;1185;-53
2021/09/21 04:51:15;;;;;;;;;;;16.20;96.20;;;;;;2086214;28;1669;-57
2021/09/21 04:52:35;;;;;;;;;;;16.20;96.30;;;;;;2084641;28;1243;-56
2021/09/21 04:53:54;;;;;;;;;;;16.10;96.50;;;;;;2086655;28;1544;-60
2021/09/21 04:55:13;;;;;;;;;;;16.20;96.40;;;;;;2083335;28;1291;-54
2021/09/21 04:56:32;;;;;;;;;;;16.20;96.30;;;;;;2084594;28;1407;-58
2021/09/21 04:57:52;;;;;;;;;;;16.20;96.30;;;;;;2080396;28;1302;-59
2021/09/21 04:59:11;;;;;;;;;;;16.10;95.80;;;;;;2080121;28;1283;-59
2021/09/21 05:00:30;;;;;;;;;;;16.20;96.10;;;;;;2082808;28;1375;-59
2021/09/21 05:01:50;;;;;;;;;;;16.20;95.00;;;;;;2084473;28;1296;-61
2021/09/21 05:03:09;;;;;;;;;;;16.20;94.80;;;;;;2088480;28;1303;-57
2021/09/21 05:04:28;;;;;;;;;;;16.20;94.60;;;;;;2083642;28;1445;-56
2021/09/21 05:05:47;;;;;;;;;;;16.20;94.60;;;;;;2089067;28;1086;-59
2021/09/21 05:07:06;;;;;;;;;;;16.20;94.80;;;;;;2082000;28;1910;-56
2021/09/21 05:08:25;;;;;;;;;;;16.20;94.40;;;;;;2082502;28;1774;-57
2021/09/21 05:09:45;;;;;;;;;;;16.20;93.60;;;;;;2088613;28;1222;-60
2021/09/21 05:11:04;;;;;;;;;;;16.20;94.00;;;;;;2083273;28;1236;-60
2021/09/21 05:12:23;;;;;;;;;;;16.10;93.80;;;;;;2086354;28;1876;-56
2021/09/21 05:13:42;;;;;;;;;;;16.10;94.60;;;;;;2085340;28;1505;-61
2021/09/21 05:15:02;;;;;;;;;;;16.20;94.60;;;;;;2086451;28;1163;-57
2021/09/21 05:16:21;;;;;;;;;;;16.10;94.80;;;;;;2083070;28;1462;-55
2021/09/21 05:17:40;;;;;;;;;;;16.20;94.90;;;;;;2088306;28;1575;-59
2021/09/21 05:18:59;;;;;;;;;;;16.20;95.10;;;;;;2085949;28;1263;-56
2021/09/21 05:20:18;;;;;;;;;;;16.10;95.10;;;;;;2086142;28;1556;-56
2021/09/21 05:21:38;;;;;;;;;;;16.20;95.30;;;;;;2089779;28;1211;-54
2021/09/21 05:23:00;;;;;;;;;;;16.10;95.30;;;;;;2084753;28;1677;-56
2021/09/21 05:24:19;;;;;;;;;;;16.20;95.40;;;;;;2080930;28;1429;-58
2021/09/21 05:25:38;;;;;;;;;;;16.20;95.80;;;;;;2083494;28;1507;-60
2021/09/21 05:26:57;;;;;;;;;;;16.20;95.40;;;;;;2088667;28;1918;-61
2021/09/21 05:28:17;;;;;;;;;;;16.20;95.60;;;;;;2076930;28;1266;-59
2021/09/21 05:29:36;;;;;;;;;;;16.20;95.60;;;;;;2088740;28;1204;-58
2021/09/21 05:30:55;;;;;;;;;;;16.10;95.60;;;;;;2092733;28;1071;-57
2021/09/21 05:32:14;;;;;;;;;;;16.10;95.60;;;;;;2086516;28;1232;-59
2021/09/21 05:33:34;;;;;;;;;;;16.20;95.70;;;;;;2090720;28;1490;-56
2021/09/21 05:34:53;;;;;;;;;;;16.20;95.80;;;;;;2098052;28;1287;-57
2021/09/21 05:36:12;;;;;;;;;;;16.10;95.70;;;;;;2090002;28;1339;-60
2021/09/21 05:37:32;;;;;;;;;;;16.20;95.80;;;;;;2088188;28;1276;-58
2021/09/21 05:38:51;;;;;;;;;;;16.10;95.80;;;;;;2087951;28;1149;-60
2021/09/21 05:40:11;;;;;;;;;;;16.10;95.80;;;;;;2088457;28;1210;-58
2021/09/21 05:41:30;;;;;;;;;;;16.20;95.90;;;;;;2087387;28;1256;-56
2021/09/21 05:42:49;;;;;;;;;;;16.10;95.90;;;;;;2086812;28;1143;-60
2021/09/21 05:44:08;;;;;;;;;;;16.10;96.20;;;;;;2085509;28;1546;-56
2021/09/21 05:45:27;;;;;;;;;;;16.10;96.30;;;;;;2089458;28;1401;-60
2021/09/21 05:46:47;;;;;;;;;;;16.10;96.00;;;;;;2087207;28;1894;-58
2021/09/21 05:48:06;;;;;;;;;;;16.10;96.20;;;;;;2091268;28;1295;-59
2021/09/21 05:49:25;;;;;;;;;;;16.10;96.10;;;;;;2089695;28;1183;-57
2021/09/21 05:50:45;;;;;;;;;;;16.10;96.20;;;;;;2087577;28;1235;-59
2021/09/21 05:52:05;;;;;;;;;;;16.10;96.20;;;;;;2089974;28;1190;-59
2021/09/21 05:53:24;;;;;;;;;;;16.10;96.20;;;;;;2089558;28;1157;-57
2021/09/21 05:54:44;;;;;;;;;;;16.10;96.20;;;;;;2097317;28;1166;-59
2021/09/21 05:56:03;;;;;;;;;;;16.10;96.30;;;;;;2086735;28;1523;-60
2021/09/21 05:57:22;;;;;;;;;;;16.10;96.30;;;;;;2095186;28;1014;-58
2021/09/21 05:58:42;;;;;;;;;;;16.10;96.30;;;;;;2091474;28;1178;-60
2021/09/21 06:00:01;;;;;;;;;;;16.10;96.70;;;;;;2082753;28;713;-59
2021/09/21 06:01:20;;;;;;;;;;;16.10;96.60;;;;;;2082832;28;852;-55
2021/09/21 06:02:39;;;;;;;;;;;16.10;96.70;;;;;;2090160;28;729;-56
2021/09/21 06:03:59;;;;;;;;;;;16.10;96.20;;;;;;2085533;28;1408;-52
2021/09/21 06:05:18;;;;;;;;;;;16.10;96.30;;;;;;2082781;28;705;-58
2021/09/21 06:06:37;;;;;;;;;;;16.10;95.60;;;;;;2081796;28;812;-57
2021/09/21 06:07:57;;;;;;;;;;;16.10;95.00;;;;;;2084904;28;996;-60
2021/09/21 06:09:16;;;;;;;;;;;16.10;93.80;;;;;;2094315;28;1260;-57
2021/09/21 06:10:36;;;;;;;;;;;16.10;94.00;;;;;;2097155;28;1024;-59
2021/09/21 06:11:55;;;;;;;;;;;16.10;94.30;;;;;;2098372;28;708;-60
2021/09/21 06:13:14;;;;;;;;;;;16.10;94.70;;;;;;2095995;28;731;-57
2021/09/21 06:14:33;;;;;;;;;;;16.00;94.90;;;;;;2097840;28;705;-59
2021/09/21 06:15:53;;;;;;;;;;;16.10;95.20;;;;;;2086119;28;728;-56
2021/09/21 06:17:12;;;;;;;;;;;16.10;95.60;;;;;;2090839;28;736;-60
2021/09/21 06:18:31;;;;;;;;;;;16.10;95.40;;;;;;2097970;28;712;-57
2021/09/21 06:19:50;;;;;;;;;;;16.10;95.70;;;;;;2098460;28;711;-55
2021/09/21 06:21:10;;;;;;;;;;;16.10;95.50;;;;;;2097557;28;832;-59
2021/09/21 06:22:29;;;;;;;;;;;16.10;95.50;;;;;;2098088;28;724;-57
2021/09/21 06:23:48;;;;;;;;;;;16.10;95.50;;;;;;2097638;28;1307;-57
2021/09/21 06:25:07;;;;;;;;;;;16.10;95.50;;;;;;2105975;28;755;-59
2021/09/21 06:26:27;;;;;;;;;;;16.10;95.60;;;;;;2096436;28;725;-57
2021/09/21 06:27:46;;;;;;;;;;;16.10;95.70;;;;;;2094205;28;724;-55
2021/09/21 06:29:07;;;;;;;;;;;16.10;95.70;;;;;;2098018;28;799;-57
2021/09/21 06:30:27;;;;;;;;;;;16.10;95.70;;;;;;2098196;28;721;-57
2021/09/21 06:31:46;;;;;;;;;;;16.10;96.00;;;;;;2098150;28;701;-56
2021/09/21 06:33:06;;;;;;;;;;;16.10;95.80;;;;;;2089265;28;712;-58
2021/09/21 06:34:25;;;;;;;;;;;16.10;95.80;;;;;;2094439;28;1463;-57
2021/09/21 06:35:44;;;;;;;;;;;16.10;95.80;;;;;;2097914;28;722;-57
2021/09/21 06:37:03;;;;;;;;;;;16.10;95.90;;;;;;2095339;28;987;-59
2021/09/21 06:38:23;;;;;;;;;;;16.10;95.90;;;;;;2088649;28;1171;-61
2021/09/21 06:39:42;;;;;;;;;;;16.10;95.90;;;;;;2081997;28;980;-57
2021/09/21 06:41:01;;;;;;;;;;;16.10;96.00;;;;;;2089898;28;755;-58
2021/09/21 06:42:21;;;;;;;;;;;16.10;96.00;;;;;;2089906;28;779;-56
2021/09/21 06:43:40;;;;;;;;;;;16.10;96.00;;;;;;2088442;28;1476;-58
2021/09/21 06:45:00;;;;;;;;;;;16.10;96.00;;;;;;2089911;28;726;-59
2021/09/21 06:46:19;;;;;;;;;;;16.10;96.00;;;;;;2088406;28;763;-57
2021/09/21 06:47:38;;;;;;;;;;;16.10;96.00;;;;;;2089275;28;1899;-56
2021/09/21 06:48:57;;;;;;;;;;;16.10;96.00;;;;;;2089907;28;688;-57
2021/09/21 06:50:17;;;;;;;;;;;16.10;96.60;;;;;;2089663;28;712;-56
2021/09/21 06:51:36;;;;;;;;;;;16.10;96.40;;;;;;2089646;28;700;-60
2021/09/21 06:52:55;;;;;;;;;;;16.10;96.30;;;;;;2089717;28;700;-56
2021/09/21 06:54:14;;;;;;;;;;;16.10;94.80;;;;;;2089590;28;1493;-56
2021/09/21 06:55:33;;;;;;;;;;;16.10;95.00;;;;;;2089053;28;1734;-58
2021/09/21 06:56:54;;;;;;;;;;;16.10;94.70;;;;;;2081617;28;1436;-58
2021/09/21 06:58:14;;;;;;;;;;;16.10;94.90;;;;;;2085419;28;1599;-57
2021/09/21 06:59:34;;;;;;;;;;;16.10;93.10;;;;;;2089847;28;1673;-56
2021/09/21 07:00:53;;;;;;;;;;;16.00;90.50;;;;;;2090017;28;771;-56
2021/09/21 07:02:12;;;;;;;;;;;16.00;89.80;;;;;;2090360;28;690;-55
2021/09/21 07:03:31;;;;;;;;;;;15.90;88.80;;;;;;2090101;28;1280;-59
2021/09/21 07:04:50;;;;;;;;;;;15.80;87.60;;;;;;2090256;28;714;-59
2021/09/21 07:06:10;;;;;;;;;;;15.80;88.30;;;;;;2089079;28;717;-55
2021/09/21 07:07:29;;;;;;;;;;;15.80;89.10;;;;;;2089715;28;1965;-58
2021/09/21 07:08:48;;;;;;;;;;;15.80;86.60;;;;;;2081639;28;906;-59
2021/09/21 07:10:07;;;;;;;;;;;15.70;86.10;;;;;;2100920;28;1246;-56
2021/09/21 07:11:27;;;;;;;;;;;15.70;86.60;;;;;;2084403;28;736;-56
2021/09/21 07:12:46;;;;;;;;;;;15.70;87.50;;;;;;2079475;28;816;-59
2021/09/21 07:14:05;;;;;;;;;;;15.70;86.50;;;;;;2077470;28;1389;-57
2021/09/21 07:15:25;;;;;;;;;;;15.80;87.10;;;;;;2081877;28;877;-57
2021/09/21 07:16:44;;;;;;;;;;;15.80;86.90;;;;;;2080911;28;769;-60
2021/09/21 07:18:03;;;;;;;;;;;15.80;87.30;;;;;;2072664;28;757;-56
2021/09/21 07:19:23;;;;;;;;;;;15.80;88.00;;;;;;2078718;28;782;-57
2021/09/21 07:20:42;;;;;;;;;;;15.80;88.80;;;;;;2089697;28;758;-54
2021/09/21 07:22:01;;;;;;;;;;;15.90;88.80;;;;;;2081371;28;791;-55
2021/09/21 07:23:20;;;;;;;;;;;15.90;90.10;;;;;;2081686;28;737;-58
2021/09/21 07:24:39;;;;;;;;;;;15.90;89.60;;;;;;2081381;28;757;-57
2021/09/21 07:25:59;;;;;;;;;;;15.90;90.20;;;;;;2078238;28;808;-59
2021/09/21 07:27:18;;;;;;;;;;;15.90;89.70;;;;;;2081657;28;1902;-57
2021/09/21 07:28:37;;;;;;;;;;;15.90;90.00;;;;;;2081949;28;735;-56
2021/09/21 07:29:56;;;;;;;;;;;15.90;90.10;;;;;;2082072;28;846;-59
2021/09/21 07:31:16;;;;;;;;;;;16.00;90.20;;;;;;2089578;28;1013;-57
2021/09/21 07:32:36;;;;;;;;;;;16.00;90.30;;;;;;2084857;28;753;-57
2021/09/21 07:33:55;;;;;;;;;;;15.90;90.30;;;;;;2082041;28;1470;-57
2021/09/21 07:35:14;;;;;;;;;;;16.00;90.40;;;;;;2082200;28;946;-55
2021/09/21 07:36:33;;;;;;;;;;;15.90;90.40;;;;;;2080561;28;799;-56
2021/09/21 07:37:53;;;;;;;;;;;15.90;90.30;;;;;;2082963;28;968;-56
2021/09/21 07:39:13;;;;;;;;;;;16.00;90.40;;;;;;2094668;28;1082;-56
2021/09/21 07:40:35;;;;;;;;;;;16.00;90.70;;;;;;2096285;28;1090;-56
2021/09/21 07:41:54;;;;;;;;;;;16.00;90.90;;;;;;2098438;28;726;-57
2021/09/21 07:43:13;;;;;;;;;;;16.00;90.70;;;;;;2095291;28;1233;-57
2021/09/21 07:44:33;;;;;;;;;;;16.00;90.80;;;;;;2097714;28;764;-60
2021/09/21 07:45:52;;;;;;;;;;;16.00;90.80;;;;;;2089701;28;1107;-58
2021/09/21 07:47:12;;;;;;;;;;;16.00;90.80;;;;;;2089604;28;1914;-55
2021/09/21 07:48:31;;;;;;;;;;;16.00;91.10;;;;;;2090069;28;796;-60
2021/09/21 07:49:50;;;;;;;;;;;16.00;91.00;;;;;;2089991;28;1162;-57
2021/09/21 07:51:09;;;;;;;;;;;16.00;91.10;;;;;;2089323;28;765;-57
2021/09/21 07:52:29;;;;;;;;;;;16.00;91.20;;;;;;2089944;28;733;-57
2021/09/21 07:53:48;;;;;;;;;;;16.00;91.20;;;;;;2089446;28;1347;-56
2021/09/21 07:55:08;;;;;;;;;;;16.00;91.20;;;;;;2089728;28;724;-60
2021/09/21 07:56:28;;;;;;;;;;;16.00;91.60;;;;;;2088889;28;745;-59
2021/09/21 07:57:48;;;;;;;;;;;16.00;91.40;;;;;;2089704;28;741;-59
2021/09/21 07:59:07;;;;;;;;;;;16.00;91.40;;;;;;2088809;28;1836;-54
2021/09/21 08:00:27;;;;;;;;;;;16.00;91.40;;;;;;2089909;28;1146;-57
2021/09/21 08:01:46;;;;;;;;;;;16.00;91.40;;;;;;2081399;28;1261;-58
2021/09/21 08:03:06;;;;;;;;;;;16.00;91.40;;;;;;2082935;28;801;-57
2021/09/21 08:04:25;;;;;;;;;;;16.00;91.60;;;;;;2089628;28;1467;-59
2021/09/21 08:05:44;;;;;;;;;;;16.00;91.60;;;;;;2090247;28;748;-56